Airfield :
LOGIN :

Register | Disclaimer

   EN    FR    IT 

 










Legend :    VFR   Marginal VFR   IFR   Intensive IFR   Very Intensive IFR
Visi :
Ceiling :
>= 8 km
>= 3000ft
5 to 8 km
1000 to 3000 ft
1500m to 5 km
500 to 1000 ft
800 to 1500m
200 to 500 ft
< 800m
< 200 ft
Symbols :   Thunderstorms  Fog  Heavy snow  Heavy precipitations  Wind > 20 kt
SIGMETs :     Misc.  Thunderstorms  Icing  Turbulence  Mountain Waves  Volcanic Ashes






- Airport Elevation : 56 ft
- IATA code : ILY


EGPI - Islay

CURRENT METAR :
  • 032350Z AUTO 14009KT 9999 BKN045/// 12/11 Q1013

EXPIRED METARs :
  • 032320Z AUTO 14008KT 9999 NCD 12/10 Q1014
  • 032250Z AUTO 15006KT 110V180 9999 NCD 12/11 Q1014
  • 032220Z AUTO 15007KT 9999 BKN047/// 12/11 Q1014
  • 032150Z AUTO 14004KT 110V200 9999 OVC045/// 12/11 Q1015
  • 032120Z AUTO 22005KT 200V260 9999 NCD 13/11 Q1015

TAF TAF EGPI
Valid from the 04 at 00:00 until the 04 at 09:00 UTC


032256Z 0400/0409 18007KT 9999 FEW015 BKN025
TEMPO 0402/0409 18015G25KT 5000 RA BKN008
PROB30
TEMPO 0406/0409 3000 +RA BKN004



MET'MAP, your aeronautical weather chart ! - Copyright ORBIFLY December 2007 - Disclaimer

ORBIFLY MET'MAP TEAM :

Programming & Development : Alexandra Zaïnal
Concept & original design : Baudouin d'Aumeries
Assistance for programming : Marc-Olivier Méhu
Technical & hardware support : Manuel Goepfert

Contact : metmap@orbifly.com




SOURCES & CREDITS :

   NOAA